createdAt,value
2022-12-24T00:03:48.639Z,10.90
2022-12-24T00:06:23.683Z,10.90
2022-12-24T00:11:19.792Z,10.80
2022-12-24T00:16:14.820Z,10.80
2022-12-24T00:18:46.156Z,10.80
2022-12-24T00:21:16.146Z,10.70
2022-12-24T00:23:43.680Z,10.80
2022-12-24T00:26:11.458Z,10.80
2022-12-24T00:28:38.464Z,10.80
2022-12-24T00:31:18.950Z,10.90
2022-12-24T00:33:47.565Z,10.80
2022-12-24T00:36:15.751Z,10.80
2022-12-24T00:41:26.021Z,10.80
2022-12-24T00:44:06.634Z,10.80
2022-12-24T00:46:34.903Z,11.00
2022-12-24T00:49:04.057Z,10.90
2022-12-24T00:51:32.368Z,10.90
2022-12-24T00:53:59.709Z,10.90
2022-12-24T00:56:27.565Z,10.90
2022-12-24T00:58:56.045Z,11.00
2022-12-24T01:01:25.145Z,11.00
2022-12-24T01:04:13.493Z,10.90
2022-12-24T01:11:35.562Z,10.70
2022-12-24T01:14:02.660Z,10.80
2022-12-24T01:18:57.367Z,10.80
2022-12-24T01:23:53.317Z,10.70
2022-12-24T01:26:20.419Z,10.70
2022-12-24T01:28:47.377Z,10.70
2022-12-24T01:31:18.330Z,10.80
2022-12-24T01:33:48.913Z,10.70
2022-12-24T01:36:17.702Z,10.70
2022-12-24T01:38:44.705Z,10.60
2022-12-24T01:41:39.147Z,10.60
2022-12-24T01:44:21.229Z,10.60
2022-12-24T01:46:55.040Z,10.50
2022-12-24T01:49:22.623Z,10.50
2022-12-24T01:51:59.182Z,10.40
2022-12-24T01:54:35.616Z,10.50
2022-12-24T01:57:17.444Z,10.50
2022-12-24T01:59:50.509Z,10.50
2022-12-24T02:02:19.329Z,10.50
2022-12-24T02:05:00.896Z,10.40
2022-12-24T02:07:28.114Z,10.30
2022-12-24T02:10:01.246Z,10.20
2022-12-24T02:12:35.322Z,10.10
2022-12-24T02:17:45.168Z,10.20
2022-12-24T02:21:21.452Z,10.10
2022-12-24T02:24:47.835Z,10.00
2022-12-24T02:27:59.469Z,10.00
2022-12-24T02:30:41.559Z,9.90
2022-12-24T02:33:27.257Z,9.90
2022-12-24T02:36:04.056Z,9.90
2022-12-24T02:39:06.265Z,9.90
2022-12-24T02:42:04.240Z,9.90
2022-12-24T02:44:47.514Z,9.90
2022-12-24T02:47:17.021Z,9.90
2022-12-24T02:49:47.836Z,9.90
2022-12-24T02:52:41.615Z,9.80
2022-12-24T02:55:30.121Z,9.90
2022-12-24T02:58:30.806Z,9.80
2022-12-24T03:01:41.304Z,9.80
2022-12-24T03:04:41.176Z,9.80
2022-12-24T03:07:37.203Z,9.80
2022-12-24T03:10:25.100Z,9.90
2022-12-24T03:13:06.777Z,9.90
2022-12-24T03:15:34.932Z,9.90
2022-12-24T03:18:06.461Z,10.00
2022-12-24T03:20:44.593Z,10.00
2022-12-24T03:23:12.779Z,10.00
2022-12-24T03:25:43.478Z,10.00
2022-12-24T03:28:16.797Z,10.00
2022-12-24T03:30:48.579Z,9.90
2022-12-24T03:33:17.116Z,9.80
2022-12-24T03:35:45.023Z,9.80
2022-12-24T03:38:12.085Z,9.70
2022-12-24T03:40:39.100Z,9.80
2022-12-24T03:45:33.631Z,9.80
2022-12-24T03:50:28.071Z,9.80
2022-12-24T03:52:56.022Z,9.80
2022-12-24T03:55:23.186Z,9.70
2022-12-24T04:00:19.103Z,9.70
2022-12-24T04:05:20.548Z,9.70
2022-12-24T04:10:18.600Z,9.50
2022-12-24T04:22:36.143Z,9.50
2022-12-24T04:25:03.324Z,9.40
2022-12-24T04:27:31.131Z,9.40
2022-12-24T04:29:58.705Z,9.40
2022-12-24T04:32:27.216Z,9.40
2022-12-24T04:37:21.606Z,9.30
2022-12-24T04:39:48.607Z,9.40
2022-12-24T04:44:43.080Z,9.30
2022-12-24T04:47:10.779Z,9.40
2022-12-24T04:49:37.948Z,9.40
2022-12-24T04:52:05.326Z,9.40
2022-12-24T04:59:27.560Z,9.30
2022-12-24T05:01:54.685Z,9.30
2022-12-24T05:06:49.168Z,9.30
2022-12-24T05:11:43.714Z,9.20
2022-12-24T05:14:10.696Z,9.20
2022-12-24T05:16:38.601Z,9.10
2022-12-24T05:19:05.979Z,9.10
2022-12-24T05:21:32.947Z,9.00
2022-12-24T05:26:53.935Z,9.00
2022-12-24T05:34:17.713Z,9.10
2022-12-24T05:36:45.112Z,9.10
2022-12-24T05:39:18.299Z,9.20
2022-12-24T05:41:46.700Z,9.20
2022-12-24T05:44:15.892Z,9.20
2022-12-24T06:01:30.428Z,9.10
2022-12-24T06:03:58.391Z,9.20
2022-12-24T06:06:28.540Z,9.20
2022-12-24T06:08:56.287Z,9.10
2022-12-24T06:11:28.410Z,9.10
2022-12-24T06:13:56.586Z,9.10
2022-12-24T06:16:26.405Z,9.10
2022-12-24T06:18:54.157Z,9.10
2022-12-24T06:21:21.413Z,9.00
2022-12-24T06:23:48.800Z,9.10
2022-12-24T06:26:21.171Z,9.10
2022-12-24T06:28:50.527Z,9.10
2022-12-24T06:31:22.472Z,9.10
2022-12-24T06:33:50.954Z,9.20
2022-12-24T06:36:26.027Z,9.20
2022-12-24T06:38:55.055Z,9.20
2022-12-24T06:41:23.691Z,9.20
2022-12-24T06:43:53.540Z,9.20
2022-12-24T06:48:49.575Z,9.20
2022-12-24T06:51:19.680Z,9.20
2022-12-24T06:53:50.472Z,9.20
2022-12-24T06:56:19.129Z,9.20
2022-12-24T06:58:46.279Z,9.20
2022-12-24T07:01:18.038Z,9.20
2022-12-24T07:06:26.720Z,9.10
2022-12-24T07:08:54.192Z,9.10
2022-12-24T07:13:51.205Z,9.20
2022-12-24T07:16:18.576Z,9.20
2022-12-24T07:18:45.744Z,9.20
2022-12-24T07:21:12.762Z,9.10
2022-12-24T07:28:35.550Z,9.10
2022-12-24T07:31:03.220Z,9.10
2022-12-24T07:33:31.002Z,9.10
2022-12-24T07:36:08.166Z,9.20
2022-12-24T07:38:35.943Z,9.20
2022-12-24T07:41:02.980Z,9.20
2022-12-24T07:46:00.052Z,9.20
2022-12-24T07:48:29.514Z,9.20
2022-12-24T07:50:57.331Z,9.20
2022-12-24T07:53:26.049Z,9.30
2022-12-24T07:55:53.581Z,9.20
2022-12-24T08:03:21.227Z,9.30
2022-12-24T08:05:49.241Z,9.30
2022-12-24T08:08:16.381Z,9.30
2022-12-24T08:10:47.240Z,9.20
2022-12-24T08:13:15.204Z,9.20
2022-12-24T08:15:43.004Z,9.20
2022-12-24T08:18:11.529Z,9.10
2022-12-24T08:20:41.272Z,9.10
2022-12-24T08:23:09.506Z,9.10
2022-12-24T08:25:37.571Z,9.10
2022-12-24T08:28:06.052Z,9.10
2022-12-24T08:30:33.727Z,9.20
2022-12-24T08:35:29.040Z,10.30
2022-12-24T08:37:56.245Z,9.20
2022-12-24T08:40:23.412Z,9.40
2022-12-24T08:45:18.669Z,9.40
2022-12-24T08:50:13.914Z,9.30
2022-12-24T08:52:40.892Z,9.40
2022-12-24T08:57:37.684Z,9.40
2022-12-24T09:00:09.530Z,9.40
2022-12-24T09:04:02.842Z,9.40
2022-12-24T09:08:58.901Z,9.40
2022-12-24T09:11:26.040Z,9.40
2022-12-24T09:16:21.242Z,9.40
2022-12-24T09:21:17.552Z,9.50
2022-12-24T09:23:47.921Z,9.50
2022-12-24T09:26:26.287Z,9.60
2022-12-24T09:31:21.939Z,9.60
2022-12-24T09:33:51.245Z,9.70
2022-12-24T09:36:19.553Z,9.80
2022-12-24T09:38:48.008Z,9.90
2022-12-24T09:41:55.834Z,9.90
2022-12-24T09:44:58.753Z,10.20
2022-12-24T09:47:52.906Z,10.40
2022-12-24T09:50:50.527Z,10.60
2022-12-24T09:53:51.869Z,10.80
2022-12-24T09:56:26.119Z,10.90
2022-12-24T09:59:07.632Z,10.70
2022-12-24T10:01:35.554Z,10.80
2022-12-24T10:04:13.591Z,10.70
2022-12-24T10:07:25.998Z,10.60
2022-12-24T10:10:12.975Z,10.50
2022-12-24T10:13:42.136Z,10.50
2022-12-24T10:16:44.021Z,10.40
2022-12-24T10:20:04.605Z,10.40
2022-12-24T10:23:12.524Z,10.40
2022-12-24T10:26:16.963Z,10.40
2022-12-24T10:29:18.915Z,10.60
2022-12-24T10:32:26.146Z,10.70
2022-12-24T10:35:04.318Z,10.90
2022-12-24T10:37:31.622Z,10.90
2022-12-24T10:40:00.898Z,11.00
2022-12-24T10:42:50.523Z,11.20
2022-12-24T10:45:27.286Z,11.30
2022-12-24T10:48:03.872Z,11.50
2022-12-24T10:50:52.544Z,11.60
2022-12-24T10:53:41.755Z,11.90
2022-12-24T10:56:13.737Z,11.70
2022-12-24T10:58:54.544Z,11.60
2022-12-24T11:01:47.187Z,11.80
2022-12-24T11:04:23.169Z,11.60
2022-12-24T11:07:04.984Z,11.50
2022-12-24T11:09:41.459Z,11.50
2022-12-24T11:12:22.936Z,11.60
2022-12-24T11:15:18.335Z,11.70
2022-12-24T11:18:06.325Z,11.80
2022-12-24T11:20:35.681Z,11.60
2022-12-24T11:23:03.050Z,11.60
2022-12-24T11:25:34.037Z,11.60
2022-12-24T11:28:28.089Z,11.90
2022-12-24T11:31:20.185Z,12.60
2022-12-24T11:33:52.662Z,13.20
2022-12-24T11:36:24.809Z,13.30
2022-12-24T11:38:59.102Z,12.90
2022-12-24T11:41:26.819Z,12.20
2022-12-24T11:44:07.734Z,12.00
2022-12-24T11:46:47.062Z,12.00
2022-12-24T11:49:24.760Z,12.20
2022-12-24T11:52:09.623Z,12.70
2022-12-24T11:55:16.973Z,13.20
2022-12-24T11:58:24.597Z,13.80
2022-12-24T12:01:03.309Z,13.30
2022-12-24T12:03:48.710Z,12.70
2022-12-24T12:07:00.219Z,12.40
2022-12-24T12:10:16.852Z,12.40
2022-12-24T12:13:15.395Z,12.30
2022-12-24T12:18:42.353Z,12.00
2022-12-24T12:21:22.163Z,11.90
2022-12-24T12:24:07.171Z,11.70
2022-12-24T12:26:34.524Z,11.60
2022-12-24T12:29:25.434Z,11.60
2022-12-24T12:32:05.140Z,11.60
2022-12-24T12:34:43.579Z,11.60
2022-12-24T12:37:23.623Z,11.40
2022-12-24T12:39:51.835Z,11.40
2022-12-24T12:42:35.447Z,11.60
2022-12-24T12:45:33.992Z,11.80
2022-12-24T12:48:45.428Z,11.90
2022-12-24T12:52:20.176Z,12.00
2022-12-24T12:55:24.983Z,12.10
2022-12-24T12:58:01.425Z,12.60
2022-12-24T13:00:38.518Z,12.60
2022-12-24T13:03:50.228Z,12.30
2022-12-24T13:06:53.308Z,12.10
2022-12-24T13:09:44.685Z,12.00
2022-12-24T13:12:47.045Z,12.20
2022-12-24T13:15:48.644Z,12.10
2022-12-24T13:18:53.339Z,12.90
2022-12-24T13:21:30.944Z,14.10
2022-12-24T13:24:16.680Z,15.10
2022-12-24T13:26:59.794Z,14.90
2022-12-24T13:29:35.809Z,14.80
2022-12-24T13:32:20.730Z,14.40
2022-12-24T13:35:19.152Z,13.00
2022-12-24T13:37:47.837Z,13.00
2022-12-24T13:40:23.731Z,12.90
2022-12-24T13:43:04.613Z,13.20
2022-12-24T13:45:31.617Z,12.80
2022-12-24T13:48:18.734Z,12.10
2022-12-24T13:50:53.780Z,12.20
2022-12-24T13:53:44.753Z,12.40
2022-12-24T13:56:16.539Z,12.70
2022-12-24T13:58:54.172Z,12.60
2022-12-24T14:01:43.698Z,12.70
2022-12-24T14:04:33.671Z,12.80
2022-12-24T14:07:04.835Z,12.70
2022-12-24T14:09:33.514Z,12.60
2022-12-24T14:12:03.180Z,12.30
2022-12-24T14:14:39.566Z,12.10
2022-12-24T14:17:22.549Z,11.80
2022-12-24T14:20:01.900Z,11.70
2022-12-24T14:22:37.143Z,11.80
2022-12-24T14:25:19.376Z,11.80
2022-12-24T14:28:06.309Z,11.60
2022-12-24T14:30:33.817Z,11.80
2022-12-24T14:33:01.084Z,11.60
2022-12-24T14:35:38.264Z,11.30
2022-12-24T14:38:14.378Z,11.00
2022-12-24T14:41:31.591Z,10.70
2022-12-24T14:44:34.034Z,10.50
2022-12-24T14:47:44.853Z,10.30
2022-12-24T14:50:34.784Z,10.20
2022-12-24T14:53:19.358Z,10.00
2022-12-24T14:55:49.526Z,9.90
2022-12-24T14:58:33.801Z,9.80
2022-12-24T15:01:21.968Z,9.60
2022-12-24T15:04:14.509Z,9.40
2022-12-24T15:06:57.545Z,9.30
2022-12-24T15:09:34.281Z,9.30
2022-12-24T15:12:04.737Z,9.30
2022-12-24T15:14:42.907Z,9.10
2022-12-24T15:17:13.194Z,9.10
2022-12-24T15:19:45.205Z,9.10
2022-12-24T15:22:31.346Z,9.10
2022-12-24T15:24:58.746Z,9.00
2022-12-24T15:27:32.692Z,8.90
2022-12-24T15:30:17.107Z,8.80
2022-12-24T15:35:55.503Z,8.60
2022-12-24T15:38:39.369Z,8.40
2022-12-24T15:41:22.107Z,8.20
2022-12-24T15:43:52.395Z,8.10
2022-12-24T15:46:26.109Z,8.20
2022-12-24T15:48:56.991Z,8.20
2022-12-24T15:51:37.168Z,8.30
2022-12-24T15:54:19.104Z,8.20
2022-12-24T15:56:47.071Z,8.10
2022-12-24T15:59:20.022Z,8.00
2022-12-24T16:01:48.568Z,7.90
2022-12-24T16:04:27.155Z,7.80
2022-12-24T16:07:04.741Z,7.60
2022-12-24T16:09:44.007Z,7.50
2022-12-24T16:12:23.845Z,7.50
2022-12-24T16:15:00.891Z,7.40
2022-12-24T16:17:34.026Z,7.40
2022-12-24T16:20:08.661Z,7.40
2022-12-24T16:22:35.918Z,7.50
2022-12-24T16:25:25.406Z,7.60
2022-12-24T16:27:53.674Z,7.60
2022-12-24T16:30:22.222Z,7.70
2022-12-24T16:32:50.974Z,7.70
2022-12-24T16:35:28.485Z,7.70
2022-12-24T16:37:56.169Z,7.60
2022-12-24T16:40:27.115Z,7.60
2022-12-24T16:43:15.796Z,7.60
2022-12-24T16:45:45.016Z,7.50
2022-12-24T16:48:24.114Z,7.40
2022-12-24T16:50:53.602Z,7.30
2022-12-24T16:53:23.309Z,7.30
2022-12-24T16:55:51.737Z,7.20
2022-12-24T16:58:20.456Z,7.20
2022-12-24T17:00:48.002Z,7.10
2022-12-24T17:03:15.344Z,7.00
2022-12-24T17:05:44.582Z,6.90
2022-12-24T17:08:12.937Z,6.80
2022-12-24T17:10:45.713Z,6.80
2022-12-24T17:13:13.420Z,6.90
2022-12-24T17:15:42.519Z,6.90
2022-12-24T17:18:09.684Z,6.80
2022-12-24T17:23:04.501Z,6.70
2022-12-24T17:25:31.584Z,6.60
2022-12-24T17:27:58.615Z,6.60
2022-12-24T17:30:25.561Z,6.50
2022-12-24T17:32:52.834Z,6.50
2022-12-24T17:37:47.596Z,6.50
2022-12-24T17:40:14.910Z,6.50
2022-12-24T17:42:41.910Z,6.60
2022-12-24T17:45:09.603Z,6.70
2022-12-24T17:47:36.737Z,6.90
2022-12-24T17:50:04.397Z,6.90
2022-12-24T17:54:59.132Z,7.00
2022-12-24T17:57:26.153Z,7.10
2022-12-24T18:02:20.889Z,7.10
2022-12-24T18:04:49.037Z,7.00
2022-12-24T18:07:16.213Z,7.00
2022-12-24T18:09:46.475Z,6.90
2022-12-24T18:12:13.925Z,6.90
2022-12-24T18:14:40.894Z,6.90
2022-12-24T18:17:08.059Z,7.00
2022-12-24T18:22:03.033Z,7.10
2022-12-24T18:26:57.446Z,7.10
2022-12-24T18:31:51.886Z,7.10
2022-12-24T18:34:18.995Z,7.20
2022-12-24T18:36:51.151Z,7.20
2022-12-24T18:39:21.940Z,7.20
2022-12-24T18:41:49.541Z,7.30
2022-12-24T18:44:22.538Z,7.40
2022-12-24T18:46:52.336Z,7.40
2022-12-24T18:51:47.771Z,7.40
2022-12-24T18:54:15.290Z,7.40
2022-12-24T18:56:42.492Z,7.40
2022-12-24T18:59:10.424Z,7.40
2022-12-24T19:01:37.776Z,7.50
2022-12-24T19:04:05.060Z,7.50
2022-12-24T19:09:01.515Z,7.60
2022-12-24T19:11:32.731Z,7.60
2022-12-24T19:14:02.262Z,7.60
2022-12-24T19:16:33.905Z,7.50
2022-12-24T19:19:04.349Z,7.50
2022-12-24T19:21:32.210Z,7.50
2022-12-24T19:23:59.505Z,7.50
2022-12-24T19:26:26.686Z,7.30
2022-12-24T19:28:54.852Z,7.50
2022-12-24T19:31:25.928Z,7.50
2022-12-24T19:33:59.203Z,7.50
2022-12-24T19:36:30.371Z,7.50
2022-12-24T19:38:59.187Z,7.50
2022-12-24T19:41:30.225Z,7.50
2022-12-24T19:44:01.936Z,7.50
2022-12-24T19:46:34.191Z,7.50
2022-12-24T19:49:06.359Z,7.50
2022-12-24T19:51:35.301Z,7.50
2022-12-24T19:56:33.297Z,7.50
2022-12-24T19:59:01.738Z,7.50
2022-12-24T20:01:32.856Z,7.50
2022-12-24T20:04:01.539Z,7.50
2022-12-24T20:06:34.089Z,7.50
2022-12-24T20:09:06.597Z,7.40
2022-12-24T20:11:35.393Z,7.40
2022-12-24T20:14:04.942Z,7.40
2022-12-24T20:16:32.909Z,7.40
2022-12-24T20:19:04.880Z,7.40
2022-12-24T20:21:33.149Z,7.40
2022-12-24T20:24:00.279Z,7.40
2022-12-24T20:26:29.832Z,7.40
2022-12-24T20:28:56.925Z,7.40
2022-12-24T20:31:29.580Z,7.40
2022-12-24T20:33:59.014Z,7.40
2022-12-24T20:36:29.244Z,7.40
2022-12-24T20:38:58.589Z,7.50
2022-12-24T20:41:29.200Z,7.40
2022-12-24T20:44:01.704Z,7.50
2022-12-24T20:46:30.993Z,7.50
2022-12-24T20:48:59.553Z,7.40
2022-12-24T20:51:28.693Z,7.40
2022-12-24T20:54:00.481Z,7.40
2022-12-24T20:56:31.009Z,7.30
2022-12-24T20:59:01.327Z,7.30
2022-12-24T21:01:29.381Z,7.30
2022-12-24T21:04:04.093Z,7.30
2022-12-24T21:06:32.382Z,7.30
2022-12-24T21:09:00.081Z,7.30
2022-12-24T21:11:45.961Z,7.30
2022-12-24T21:14:13.772Z,7.30
2022-12-24T21:16:41.831Z,7.30
2022-12-24T21:19:14.701Z,7.30
2022-12-24T21:21:42.785Z,7.30
2022-12-24T21:24:10.975Z,7.40
2022-12-24T21:26:38.504Z,7.40
2022-12-24T21:29:09.005Z,7.40
2022-12-24T21:31:37.841Z,7.40
2022-12-24T21:34:05.232Z,7.40
2022-12-24T21:36:32.487Z,7.40
2022-12-24T21:38:59.552Z,7.40
2022-12-24T21:41:27.561Z,7.50
2022-12-24T21:43:55.202Z,7.50
2022-12-24T21:46:25.761Z,7.40
2022-12-24T21:49:14.920Z,7.40
2022-12-24T21:51:44.717Z,7.40
2022-12-24T21:54:23.957Z,7.40
2022-12-24T21:57:13.905Z,7.40
2022-12-24T22:02:16.002Z,7.40
2022-12-24T22:04:44.178Z,7.40
2022-12-24T22:07:47.118Z,7.40
2022-12-24T22:10:33.343Z,7.30
2022-12-24T22:13:06.258Z,7.30
2022-12-24T22:15:45.359Z,7.40
2022-12-24T22:18:15.801Z,7.40
2022-12-24T22:20:45.961Z,7.40
2022-12-24T22:23:15.204Z,7.40
2022-12-24T22:25:43.792Z,7.40
2022-12-24T22:28:12.038Z,7.50
2022-12-24T22:30:42.209Z,7.40
2022-12-24T22:33:10.440Z,7.40
2022-12-24T22:35:40.138Z,7.50
2022-12-24T22:38:09.835Z,7.50
2022-12-24T22:40:40.255Z,7.50
2022-12-24T22:43:07.483Z,7.50
2022-12-24T22:45:34.576Z,7.50
2022-12-24T22:48:02.476Z,7.50
2022-12-24T22:50:29.492Z,7.50
2022-12-24T22:52:56.552Z,7.50
2022-12-24T22:55:24.321Z,7.50
2022-12-24T23:00:44.575Z,7.40
2022-12-24T23:03:12.795Z,7.40
2022-12-24T23:05:40.408Z,7.40
2022-12-24T23:08:08.207Z,7.40
2022-12-24T23:13:23.024Z,7.30
2022-12-24T23:15:50.629Z,7.30
2022-12-24T23:18:17.697Z,7.30
2022-12-24T23:20:45.574Z,7.30
2022-12-24T23:23:14.885Z,7.20
2022-12-24T23:25:42.144Z,7.20
2022-12-24T23:28:09.504Z,7.10
2022-12-24T23:30:36.647Z,7.10
2022-12-24T23:35:31.400Z,7.10
2022-12-24T23:37:58.356Z,7.10
2022-12-24T23:40:25.637Z,7.10
2022-12-24T23:45:20.138Z,7.20
2022-12-24T23:47:47.118Z,7.10
2022-12-24T23:50:14.066Z,7.20
2022-12-24T23:52:41.412Z,7.20
2022-12-24T23:55:08.527Z,7.20
2022-12-24T23:57:35.624Z,7.20
